Columbus AFB, Mississippi
Current Conditions -  °F | °C
As of 9:50 AM on Friday 19 Dec 2014 (Local Time) from KGTR Reporting Station
Overcast Overcast  
Wind Chill: 41°   Ceiling: 3800
Heat Index: 45°   Visibility: 10mi
Dew Point: 37°   Wind: 7mph
Humidity: 76%   Direction: 40°NE
Pressure: 30.23"   Gusts: NA
Location:  33.455°N, 88.5512°W
Report Text: KGTR 191550Z 04006KT 10SM OVC038 07/03 A3023
Loading
Personal Weather Stations






























Interactive Weather Map New forecast layout! Learn more

10-Day Weather Forecast

Advertisements
Track Severe Weather on mobile